createdAt,value
2022-09-05T00:01:29.976Z,102004.97
2022-09-05T00:04:25.208Z,102008.66
2022-09-05T00:07:03.302Z,102007.59
2022-09-05T00:09:55.233Z,102012.84
2022-09-05T00:12:26.581Z,102002.41
2022-09-05T00:15:16.684Z,102018.78
2022-09-05T00:22:51.276Z,102012.69
2022-09-05T00:24:29.486Z,102009.41
2022-09-05T00:24:36.683Z,102010.84
2022-09-05T00:26:58.799Z,102006.44
2022-09-05T00:31:05.701Z,102011.66
2022-09-05T00:33:18.228Z,102019.50
2022-09-05T00:36:09.404Z,102016.72
2022-09-05T00:38:41.224Z,102020.00
2022-09-05T00:41:13.513Z,102024.75
2022-09-05T00:43:44.503Z,102025.34
2022-09-05T00:46:17.422Z,102020.19
2022-09-05T00:48:50.310Z,102024.84
2022-09-05T00:51:34.669Z,102020.81
2022-09-05T00:54:41.073Z,102023.31
2022-09-05T00:57:30.600Z,102026.66
2022-09-05T01:00:17.030Z,102022.53
2022-09-05T01:03:16.983Z,102026.94
2022-09-05T01:05:57.812Z,102031.03
2022-09-05T01:08:42.598Z,102025.47
2022-09-05T01:11:18.856Z,102030.59
2022-09-05T01:13:51.543Z,102036.66
2022-09-05T01:16:24.858Z,102038.59
2022-09-05T01:19:06.589Z,102038.16
2022-09-05T01:21:49.358Z,102034.47
2022-09-05T01:24:32.576Z,102039.19
2022-09-05T01:27:42.270Z,102030.16
2022-09-05T01:30:31.874Z,102036.34
2022-09-05T01:33:12.061Z,102041.81
2022-09-05T01:36:03.623Z,102033.78
2022-09-05T01:38:48.357Z,102032.25
2022-09-05T01:41:37.383Z,102042.97
2022-09-05T01:44:25.153Z,102036.91
2022-09-05T01:47:05.115Z,102036.84
2022-09-05T01:49:45.594Z,102026.38
2022-09-05T01:52:25.965Z,102037.66
2022-09-05T01:55:19.460Z,102034.66
2022-09-05T01:57:51.788Z,102042.88
2022-09-05T02:00:24.507Z,102040.81
2022-09-05T02:03:04.876Z,102051.31
2022-09-05T02:05:51.920Z,102057.56
2022-09-05T02:08:41.862Z,102049.00
2022-09-05T02:11:11.858Z,102045.47
2022-09-05T02:13:50.726Z,102041.25
2022-09-05T02:16:27.616Z,102050.78
2022-09-05T02:19:01.182Z,102045.63
2022-09-05T02:21:56.610Z,102043.19
2022-09-05T02:24:30.952Z,102049.38
2022-09-05T02:27:46.137Z,102059.00
2022-09-05T02:30:09.897Z,102058.06
2022-09-05T02:32:49.676Z,102049.41
2022-09-05T02:35:29.090Z,102048.75
2022-09-05T02:39:13.535Z,102050.97
2022-09-05T02:45:11.603Z,102052.00
2022-09-05T02:45:20.931Z,102057.09
2022-09-05T02:46:50.949Z,102051.88
2022-09-05T02:54:19.199Z,102052.00
2022-09-05T02:57:28.390Z,102054.91
2022-09-05T02:57:43.274Z,102058.16
2022-09-05T02:58:18.504Z,102056.81
2022-09-05T03:00:58.201Z,102063.38
2022-09-05T03:03:35.601Z,102062.59
2022-09-05T03:06:34.451Z,102056.59
2022-09-05T03:09:17.721Z,102057.25
2022-09-05T03:12:31.433Z,102053.38
2022-09-05T03:15:44.135Z,102052.75
2022-09-05T03:19:05.713Z,102053.53
2022-09-05T03:21:50.835Z,102045.88
2022-09-05T03:24:56.457Z,102051.97
2022-09-05T03:27:51.212Z,102046.72
2022-09-05T03:30:21.133Z,102044.22
2022-09-05T03:33:27.991Z,102053.00
2022-09-05T03:36:49.142Z,102049.22
2022-09-05T03:39:42.590Z,102053.06
2022-09-05T03:42:35.443Z,102053.78
2022-09-05T03:45:37.261Z,102056.47
2022-09-05T03:48:29.493Z,102044.78
2022-09-05T03:57:05.528Z,102052.44
2022-09-05T03:57:21.024Z,102056.84
2022-09-05T03:57:42.710Z,102055.16
2022-09-05T04:00:21.590Z,102050.16
2022-09-05T04:08:07.035Z,102054.91
2022-09-05T04:08:14.028Z,102060.03
2022-09-05T04:08:49.200Z,102050.38
2022-09-05T04:11:35.520Z,102052.03
2022-09-05T04:14:08.797Z,102052.34
2022-09-05T04:16:49.955Z,102056.22
2022-09-05T04:19:27.784Z,102053.50
2022-09-05T04:22:01.915Z,102054.66
2022-09-05T04:24:33.349Z,102056.81
2022-09-05T04:27:16.855Z,102052.19
2022-09-05T04:29:58.812Z,102054.78
2022-09-05T04:32:46.204Z,102061.28
2022-09-05T04:35:32.154Z,102063.25
2022-09-05T04:38:10.929Z,102064.31
2022-09-05T04:40:42.410Z,102067.63
2022-09-05T04:43:20.252Z,102064.78
2022-09-05T04:45:53.555Z,102071.19
2022-09-05T04:48:26.185Z,102070.56
2022-09-05T04:51:11.532Z,102073.72
2022-09-05T04:53:56.474Z,102071.91
2022-09-05T04:56:29.648Z,102070.94
2022-09-05T05:01:01.750Z,102072.50
2022-09-05T05:06:16.279Z,102077.75
2022-09-05T05:06:18.707Z,102074.28
2022-09-05T05:07:46.431Z,102075.69
2022-09-05T05:12:08.846Z,102079.50
2022-09-05T05:18:01.692Z,102075.03
2022-09-05T05:18:07.790Z,102075.19
2022-09-05T05:19:18.972Z,102080.03
2022-09-05T05:21:52.234Z,102079.06
2022-09-05T05:24:24.314Z,102093.28
2022-09-05T05:26:59.940Z,102085.53
2022-09-05T05:29:39.860Z,102090.22
2022-09-05T05:32:09.512Z,102083.44
2022-09-05T05:34:45.045Z,102091.44
2022-09-05T05:37:19.574Z,102091.91
2022-09-05T05:39:52.050Z,102092.69
2022-09-05T05:42:23.694Z,102099.31
2022-09-05T05:44:54.689Z,102088.44
2022-09-05T05:47:32.036Z,102094.47
2022-09-05T05:50:03.896Z,102091.78
2022-09-05T05:52:45.136Z,102087.78
2022-09-05T05:55:51.429Z,102097.94
2022-09-05T05:58:34.322Z,102093.41
2022-09-05T06:01:36.950Z,102091.91
2022-09-05T06:04:52.351Z,102098.47
2022-09-05T06:07:30.416Z,102097.72
2022-09-05T06:14:49.727Z,102101.50
2022-09-05T06:15:02.640Z,102088.72
2022-09-05T06:17:00.563Z,102097.84
2022-09-05T06:22:07.008Z,102103.09
2022-09-05T06:23:16.596Z,102099.41
2022-09-05T06:26:41.011Z,102097.22
2022-09-05T06:29:19.835Z,102101.53
2022-09-05T06:32:05.269Z,102097.78
2022-09-05T06:35:02.381Z,102109.91
2022-09-05T06:37:42.845Z,102104.00
2022-09-05T06:40:19.110Z,102099.31
2022-09-05T06:43:05.859Z,102101.41
2022-09-05T06:45:58.559Z,102110.44
2022-09-05T06:48:44.537Z,102104.78
2022-09-05T06:51:44.773Z,102112.66
2022-09-05T06:54:32.660Z,102109.25
2022-09-05T06:57:43.923Z,102113.22
2022-09-05T07:00:23.668Z,102112.00
2022-09-05T07:03:13.530Z,102113.03
2022-09-05T07:05:50.294Z,102115.94
2022-09-05T07:08:36.362Z,102119.94
2022-09-05T07:11:15.503Z,102132.03
2022-09-05T07:13:55.825Z,102129.63
2022-09-05T07:16:38.454Z,102128.38
2022-09-05T07:19:24.266Z,102121.53
2022-09-05T07:22:48.111Z,102129.88
2022-09-05T07:25:21.282Z,102127.31
2022-09-05T07:28:28.925Z,102132.59
2022-09-05T07:30:50.037Z,102136.66
2022-09-05T07:33:21.181Z,102125.50
2022-09-05T07:35:52.505Z,102129.09
2022-09-05T07:38:32.615Z,102121.19
2022-09-05T07:41:22.169Z,102126.97
2022-09-05T07:43:55.105Z,102130.09
2022-09-05T07:46:27.088Z,102122.25
2022-09-05T07:48:59.551Z,102129.72
2022-09-05T07:56:56.083Z,102131.38
2022-09-05T07:57:02.366Z,102132.41
2022-09-05T07:57:30.129Z,102129.41
2022-09-05T08:00:04.659Z,102137.38
2022-09-05T08:02:33.198Z,102131.38
2022-09-05T08:05:04.334Z,102136.19
2022-09-05T08:07:49.561Z,102137.81
2022-09-05T08:10:35.816Z,102135.56
2022-09-05T08:13:23.884Z,102137.34
2022-09-05T08:16:13.803Z,102137.13
2022-09-05T08:18:46.352Z,102128.63
2022-09-05T08:21:27.049Z,102124.25
2022-09-05T08:24:00.549Z,102126.81
2022-09-05T08:26:39.551Z,102118.13
2022-09-05T08:29:18.803Z,102125.22
2022-09-05T08:31:52.697Z,102116.75
2022-09-05T08:34:31.381Z,102111.91
2022-09-05T08:37:15.179Z,102113.97
2022-09-05T08:40:09.671Z,102112.03
2022-09-05T08:44:02.717Z,102104.66
2022-09-05T08:46:42.802Z,102099.38
2022-09-05T08:49:13.099Z,102095.16
2022-09-05T08:51:55.434Z,102094.69
2022-09-05T08:54:31.837Z,102086.94
2022-09-05T08:57:05.772Z,102086.97
2022-09-05T09:00:18.403Z,102082.72
2022-09-05T09:03:04.225Z,102077.53
2022-09-05T09:06:14.068Z,102081.97
2022-09-05T09:09:11.725Z,102074.19
2022-09-05T09:11:44.109Z,102071.59
2022-09-05T09:14:31.970Z,102078.81
2022-09-05T09:17:05.107Z,102078.94
2022-09-05T09:19:46.948Z,102073.19
2022-09-05T09:22:27.642Z,102066.06
2022-09-05T09:25:11.916Z,102073.34
2022-09-05T09:28:46.467Z,102070.03
2022-09-05T09:31:11.594Z,102073.09
2022-09-05T09:33:45.756Z,102075.91
2022-09-05T09:36:35.001Z,102068.78
2022-09-05T09:39:38.345Z,102071.63
2022-09-05T09:42:33.240Z,102064.50
2022-09-05T09:45:38.841Z,102068.78
2022-09-05T09:48:36.896Z,102074.88
2022-09-05T09:51:38.533Z,102072.56
2022-09-05T09:54:34.907Z,102069.22
2022-09-05T09:57:32.643Z,102066.69
2022-09-05T10:00:09.629Z,102071.09
2022-09-05T10:05:08.317Z,102065.75
2022-09-05T10:10:46.906Z,102062.22
2022-09-05T10:10:53.993Z,102055.41
2022-09-05T10:15:30.850Z,102047.47
2022-09-05T10:18:23.018Z,102037.84
2022-09-05T10:21:15.698Z,102034.34
2022-09-05T10:24:15.264Z,102027.22
2022-09-05T10:27:14.693Z,102035.19
2022-09-05T10:29:47.160Z,102028.22
2022-09-05T10:35:10.554Z,102030.84
2022-09-05T10:35:22.572Z,102036.19
2022-09-05T10:37:59.860Z,102031.84
2022-09-05T10:41:13.194Z,102013.25
2022-09-05T10:43:29.925Z,102015.06
2022-09-05T10:46:16.990Z,102008.09
2022-09-05T10:48:55.284Z,102007.38
2022-09-05T10:51:30.778Z,102004.78
2022-09-05T10:54:21.154Z,101995.94
2022-09-05T10:56:56.197Z,101999.44
2022-09-05T11:01:52.346Z,101998.59
2022-09-05T11:02:33.608Z,101996.72
2022-09-05T11:05:17.361Z,101993.22
2022-09-05T11:07:54.623Z,101990.56
2022-09-05T11:10:28.295Z,101988.78
2022-09-05T11:13:10.696Z,101983.47
2022-09-05T11:16:04.877Z,101977.28
2022-09-05T11:18:57.103Z,101980.84
2022-09-05T11:21:41.552Z,101980.06
2022-09-05T11:24:27.429Z,101966.84
2022-09-05T11:27:24.239Z,101966.00
2022-09-05T11:29:51.215Z,101966.00
2022-09-05T11:39:54.894Z,101965.13
2022-09-05T11:39:58.550Z,101959.81
2022-09-05T11:39:58.952Z,101975.72
2022-09-05T11:42:22.014Z,101969.56
2022-09-05T11:45:19.115Z,101966.91
2022-09-05T11:48:08.774Z,101961.63
2022-09-05T11:50:59.946Z,101963.38
2022-09-05T11:54:13.893Z,101965.16
2022-09-05T11:57:12.777Z,101957.19
2022-09-05T12:00:32.126Z,101952.78
2022-09-05T12:03:58.175Z,101962.50
2022-09-05T12:06:59.486Z,101953.66
2022-09-05T12:09:42.532Z,101960.72
2022-09-05T12:12:41.084Z,101957.19
2022-09-05T12:15:27.468Z,101943.94
2022-09-05T12:18:18.888Z,101947.50
2022-09-05T12:20:58.292Z,101960.72
2022-09-05T12:24:13.492Z,101942.16
2022-09-05T12:27:40.234Z,101937.75
2022-09-05T12:29:34.840Z,101929.75
2022-09-05T12:35:48.704Z,101929.78
2022-09-05T12:36:10.398Z,101930.66
2022-09-05T12:40:55.594Z,101929.78
2022-09-05T12:41:36.066Z,101928.84
2022-09-05T12:44:38.345Z,101926.22
2022-09-05T12:46:45.733Z,101927.03
2022-09-05T12:49:35.298Z,101916.44
2022-09-05T12:52:06.644Z,101925.31
2022-09-05T12:54:46.240Z,101910.28
2022-09-05T13:00:31.754Z,101918.19
2022-09-05T13:03:07.068Z,101918.22
2022-09-05T13:03:27.739Z,101911.13
2022-09-05T13:06:05.579Z,101914.72
2022-09-05T13:08:58.987Z,101910.25
2022-09-05T13:14:59.974Z,101916.41
2022-09-05T13:15:01.159Z,101906.66
2022-09-05T13:17:17.303Z,101908.44
2022-09-05T13:19:51.269Z,101903.06
2022-09-05T13:22:22.155Z,101900.47
2022-09-05T13:24:54.854Z,101905.78
2022-09-05T13:27:29.266Z,101907.50
2022-09-05T13:31:19.843Z,101894.34
2022-09-05T13:38:04.148Z,101892.56
2022-09-05T13:38:30.645Z,101893.38
2022-09-05T13:38:56.817Z,101896.16
2022-09-05T13:41:30.050Z,101896.16
2022-09-05T13:44:25.472Z,101895.25
2022-09-05T13:46:58.481Z,101889.97
2022-09-05T13:49:32.191Z,101885.53
2022-09-05T13:52:17.709Z,101898.81
2022-09-05T13:54:51.687Z,101888.19
2022-09-05T13:57:33.422Z,101887.28
2022-09-05T14:00:44.468Z,101884.53
2022-09-05T14:03:39.052Z,101888.03
2022-09-05T14:06:47.205Z,101885.34
2022-09-05T14:09:38.649Z,101883.66
2022-09-05T14:12:13.495Z,101888.13
2022-09-05T14:17:55.020Z,101879.38
2022-09-05T14:20:49.404Z,101879.34
2022-09-05T14:23:21.577Z,101872.28
2022-09-05T14:25:53.957Z,101869.59
2022-09-05T14:28:27.237Z,101872.25
2022-09-05T14:32:09.283Z,101879.31
2022-09-05T14:37:46.540Z,101870.44
2022-09-05T14:37:48.280Z,101877.53
2022-09-05T14:40:36.474Z,101870.47
2022-09-05T14:43:42.410Z,101874.84
2022-09-05T14:46:28.266Z,101864.28
2022-09-05T14:49:18.309Z,101866.91
2022-09-05T14:51:48.123Z,101868.63
2022-09-05T15:02:46.421Z,101857.06
2022-09-05T15:02:53.580Z,101864.06
2022-09-05T15:03:03.882Z,101870.31
2022-09-05T15:05:41.778Z,101857.91
2022-09-05T15:08:30.548Z,101850.91
2022-09-05T15:12:20.854Z,101855.38
2022-09-05T15:14:03.476Z,101843.91
2022-09-05T15:16:36.455Z,101839.47
2022-09-05T15:19:04.261Z,101843.88
2022-09-05T15:21:37.994Z,101835.94
2022-09-05T15:24:24.365Z,101835.97
2022-09-05T15:26:55.904Z,101833.31
2022-09-05T15:29:34.135Z,101836.88
2022-09-05T15:32:14.889Z,101834.22
2022-09-05T15:34:42.803Z,101835.16
2022-09-05T15:37:26.733Z,101835.16
2022-09-05T15:40:22.498Z,101830.75
2022-09-05T15:42:56.653Z,101834.28
2022-09-05T15:45:28.346Z,101833.41
2022-09-05T15:48:16.273Z,101826.31
2022-09-05T15:50:46.853Z,101831.63
2022-09-05T15:53:24.759Z,101836.91
2022-09-05T15:56:00.050Z,101835.16
2022-09-05T15:58:54.032Z,101830.75
2022-09-05T16:01:52.327Z,101829.88
2022-09-05T16:09:03.089Z,101834.28
2022-09-05T16:10:41.438Z,58734.78
2022-09-05T16:10:58.344Z,58734.78
2022-09-05T16:12:47.963Z,58734.78
2022-09-05T16:18:20.009Z,58734.78
2022-09-05T16:23:19.306Z,58734.78
2022-09-05T16:23:31.184Z,58734.78
2022-09-05T16:24:05.168Z,58734.78
2022-09-05T16:26:39.622Z,58734.78
2022-09-05T16:29:25.236Z,58734.78
2022-09-05T16:32:11.162Z,58734.78
2022-09-05T16:34:49.781Z,58734.78
2022-09-05T16:37:21.698Z,58734.78
2022-09-05T16:39:53.371Z,58734.78
2022-09-05T16:42:47.212Z,58734.78
2022-09-05T16:45:23.933Z,58734.78
2022-09-05T16:48:07.046Z,58734.78
2022-09-05T16:50:50.147Z,58734.78
2022-09-05T16:53:30.051Z,58734.78
2022-09-05T16:56:03.603Z,58734.78
2022-09-05T16:58:37.317Z,58734.78
2022-09-05T17:01:37.376Z,58734.78
2022-09-05T17:04:15.847Z,58734.78
2022-09-05T17:06:55.340Z,58734.78
2022-09-05T17:09:26.068Z,58734.78
2022-09-05T17:12:01.343Z,58734.78
2022-09-05T17:14:35.443Z,58734.78
2022-09-05T17:17:20.218Z,58734.78
2022-09-05T17:20:05.867Z,58734.78
2022-09-05T17:26:08.333Z,58734.78
2022-09-05T17:29:32.368Z,58734.78
2022-09-05T17:30:36.939Z,58734.78
2022-09-05T17:31:57.242Z,58734.78
2022-09-05T17:35:16.610Z,58734.78
2022-09-05T17:38:33.396Z,58734.78
2022-09-05T17:41:15.765Z,58734.78
2022-09-05T17:43:46.244Z,58734.78
2022-09-05T17:46:21.344Z,58734.78
2022-09-05T17:49:17.670Z,58734.78
2022-09-05T17:52:31.321Z,58734.78
2022-09-05T17:54:59.804Z,58734.78
2022-09-05T17:57:42.572Z,58734.78
2022-09-05T18:00:45.545Z,58734.78
2022-09-05T18:03:51.324Z,58734.78
2022-09-05T18:06:39.245Z,58734.78
2022-09-05T18:09:49.645Z,58734.78
2022-09-05T18:16:13.985Z,58734.78
2022-09-05T18:19:33.702Z,58734.78
2022-09-05T18:21:52.992Z,58734.78
2022-09-05T18:27:43.685Z,58734.78
2022-09-05T18:30:33.074Z,58734.78
2022-09-05T18:33:55.809Z,58734.78
2022-09-05T18:36:33.403Z,58734.78
2022-09-05T18:39:37.664Z,58734.78
2022-09-05T18:42:33.359Z,58734.78
2022-09-05T18:45:03.241Z,58734.78
2022-09-05T18:47:52.960Z,58734.78
2022-09-05T18:50:32.766Z,58734.78
2022-09-05T18:53:09.379Z,58734.78
2022-09-05T18:56:11.347Z,58734.78
2022-09-05T18:58:35.527Z,58734.78
2022-09-05T19:01:21.399Z,58734.78
2022-09-05T19:03:52.457Z,58734.78
2022-09-05T19:06:36.468Z,58734.78
2022-09-05T19:09:08.402Z,58734.78
2022-09-05T19:11:52.799Z,58734.78
2022-09-05T19:14:39.865Z,58734.78
2022-09-05T19:17:15.461Z,58734.78
2022-09-05T19:20:30.507Z,58734.78
2022-09-05T19:23:11.144Z,58734.78
2022-09-05T19:25:43.432Z,58734.78
2022-09-05T19:36:45.400Z,58734.78
2022-09-05T19:36:59.601Z,58734.78
2022-09-05T19:37:22.506Z,58734.78
2022-09-05T19:37:30.415Z,58734.78
2022-09-05T19:42:55.745Z,58734.78
2022-09-05T19:47:39.630Z,58734.78
2022-09-05T19:47:44.519Z,58734.78
2022-09-05T19:50:56.855Z,58734.78
2022-09-05T19:53:25.738Z,58734.78
2022-09-05T19:55:55.478Z,58734.78
2022-09-05T19:58:24.681Z,58734.78
2022-09-05T20:01:03.363Z,58734.78
2022-09-05T20:03:38.854Z,58734.78
2022-09-05T20:06:29.728Z,58734.78
2022-09-05T20:09:10.726Z,58734.78
2022-09-05T20:11:46.306Z,58734.78
2022-09-05T20:14:20.504Z,58734.78
2022-09-05T20:16:50.063Z,58734.78
2022-09-05T20:19:31.096Z,58734.78
2022-09-05T20:22:18.712Z,58734.78
2022-09-05T20:24:51.084Z,58734.78
2022-09-05T20:27:26.991Z,58734.78
2022-09-05T20:29:57.864Z,58734.78
2022-09-05T20:32:39.396Z,58734.78
2022-09-05T20:38:36.816Z,58734.78
2022-09-05T20:43:15.201Z,58734.78
2022-09-05T20:43:20.494Z,58734.78
2022-09-05T20:43:57.896Z,58734.78
2022-09-05T20:50:51.297Z,58734.78
2022-09-05T20:54:15.415Z,58734.78
2022-09-05T20:54:19.063Z,58734.78
2022-09-05T20:55:40.353Z,58734.78
2022-09-05T20:58:09.291Z,58734.78
2022-09-05T21:01:20.517Z,58734.78
2022-09-05T21:03:34.782Z,58734.78
2022-09-05T21:06:12.756Z,58734.78
2022-09-05T21:08:40.707Z,58734.78
2022-09-05T21:11:08.828Z,58734.78
2022-09-05T21:13:51.978Z,58734.78
2022-09-05T21:16:28.220Z,58734.78
2022-09-05T21:18:56.320Z,58734.78
2022-09-05T21:21:29.625Z,58734.78
2022-09-05T21:24:16.127Z,58734.78
2022-09-05T21:26:48.325Z,58734.78
2022-09-05T21:29:18.037Z,58734.78
2022-09-05T21:31:54.685Z,58734.78
2022-09-05T21:34:28.470Z,58734.78
2022-09-05T21:37:06.693Z,58734.78
2022-09-05T21:39:39.999Z,58734.78
2022-09-05T21:44:25.415Z,58734.78
2022-09-05T21:47:40.083Z,58734.78
2022-09-05T21:47:53.249Z,58734.78
2022-09-05T21:50:31.376Z,58734.78
2022-09-05T21:55:23.935Z,58734.78
2022-09-05T21:59:20.625Z,58734.78
2022-09-05T21:59:24.479Z,58734.78
2022-09-05T22:01:51.662Z,58734.78
2022-09-05T22:04:22.049Z,58734.78
2022-09-05T22:06:50.475Z,58734.78
2022-09-05T22:09:18.781Z,58734.78
2022-09-05T22:11:50.675Z,58734.78
2022-09-05T22:14:18.686Z,58734.78
2022-09-05T22:16:47.500Z,58734.78
2022-09-05T22:19:23.065Z,58734.78
2022-09-05T22:21:55.870Z,58734.78
2022-09-05T22:24:25.747Z,58734.78
2022-09-05T22:27:12.230Z,58734.78
2022-09-05T22:29:41.128Z,58734.78
2022-09-05T22:32:09.315Z,58734.78
2022-09-05T22:34:37.079Z,58734.78
2022-09-05T22:37:06.258Z,58734.78
2022-09-05T22:39:37.240Z,58734.78
2022-09-05T22:42:07.601Z,58734.78
2022-09-05T22:44:39.608Z,58734.78
2022-09-05T22:47:07.699Z,58734.78
2022-09-05T22:49:36.411Z,58734.78
2022-09-05T22:52:06.659Z,58734.78
2022-09-05T22:54:35.007Z,58734.78
2022-09-05T22:57:02.997Z,58734.78
2022-09-05T22:59:30.915Z,58734.78
2022-09-05T23:01:58.770Z,58734.78
2022-09-05T23:04:26.857Z,58734.78
2022-09-05T23:06:54.820Z,58734.78
2022-09-05T23:09:23.839Z,58734.78
2022-09-05T23:11:51.483Z,58734.78
2022-09-05T23:14:19.184Z,58734.78
2022-09-05T23:16:46.803Z,58734.78
2022-09-05T23:19:14.514Z,58734.78
2022-09-05T23:21:42.404Z,58734.78
2022-09-05T23:24:10.207Z,58734.78
2022-09-05T23:26:39.200Z,58734.78
2022-09-05T23:29:06.968Z,58734.78
2022-09-05T23:31:34.752Z,58734.78
2022-09-05T23:34:02.607Z,58734.78
2022-09-05T23:36:31.422Z,58734.78
2022-09-05T23:38:59.639Z,58734.78
2022-09-05T23:41:27.342Z,58734.78
2022-09-05T23:43:56.638Z,58734.78
2022-09-05T23:46:24.352Z,58734.78
2022-09-05T23:48:52.294Z,58734.78
2022-09-05T23:51:20.001Z,58734.78
2022-09-05T23:53:47.842Z,58734.78
2022-09-05T23:56:15.622Z,58734.78
2022-09-05T23:58:43.320Z,58734.78
